createdAt,value
2023-04-16T00:00:49.758Z,94.90
2023-04-16T00:01:49.759Z,122.70
2023-04-16T00:02:49.976Z,72.30
2023-04-16T00:03:49.969Z,93.10
2023-04-16T00:04:49.788Z,86.00
2023-04-16T00:05:49.738Z,90.20
2023-04-16T00:06:49.749Z,108.30
2023-04-16T00:07:49.738Z,98.30
2023-04-16T00:08:49.714Z,81.90
2023-04-16T00:09:49.689Z,85.00
2023-04-16T00:10:49.704Z,86.90
2023-04-16T00:11:49.810Z,83.90
2023-04-16T00:12:49.695Z,93.10
2023-04-16T00:13:49.676Z,92.20
2023-04-16T00:14:49.717Z,86.90
2023-04-16T00:15:49.683Z,82.40
2023-04-16T00:16:49.690Z,89.10
2023-04-16T00:17:49.682Z,77.80
2023-04-16T00:18:49.660Z,83.10
2023-04-16T00:19:49.638Z,100.80
2023-04-16T00:20:49.656Z,108.80
2023-04-16T00:21:49.617Z,111.30
2023-04-16T00:22:49.651Z,88.90
2023-04-16T00:23:49.649Z,92.20
2023-04-16T00:24:49.624Z,89.70
2023-04-16T00:25:49.593Z,93.70
2023-04-16T00:26:49.590Z,112.60
2023-04-16T00:27:49.576Z,87.10
2023-04-16T00:28:49.610Z,104.60
2023-04-16T00:29:49.588Z,88.70
2023-04-16T00:30:49.632Z,107.30
2023-04-16T00:31:49.554Z,81.60
2023-04-16T00:32:49.587Z,92.90
2023-04-16T00:33:49.541Z,93.10
2023-04-16T00:34:49.557Z,110.00
2023-04-16T00:35:49.570Z,102.80
2023-04-16T00:36:49.563Z,119.70
2023-04-16T00:37:49.521Z,106.20
2023-04-16T00:38:49.571Z,99.40
2023-04-16T00:39:49.511Z,107.90
2023-04-16T00:40:49.536Z,96.50
2023-04-16T00:41:49.496Z,121.50
2023-04-16T00:42:49.508Z,107.00
2023-04-16T00:43:49.502Z,107.90
2023-04-16T00:44:49.507Z,102.60
2023-04-16T00:45:49.527Z,95.90
2023-04-16T00:46:49.524Z,95.60
2023-04-16T00:47:49.527Z,96.30
2023-04-16T00:48:49.518Z,127.80
2023-04-16T00:49:49.473Z,104.70
2023-04-16T00:50:49.466Z,102.50
2023-04-16T00:51:49.470Z,95.20
2023-04-16T00:52:49.459Z,103.30
2023-04-16T00:53:49.430Z,102.50
2023-04-16T00:54:49.464Z,101.80
2023-04-16T00:55:49.437Z,98.70
2023-04-16T00:56:49.471Z,112.90
2023-04-16T00:57:49.410Z,101.50
2023-04-16T00:58:49.421Z,99.10
2023-04-16T00:59:49.422Z,86.80
2023-04-16T01:00:49.435Z,99.40
2023-04-16T01:01:49.577Z,102.40
2023-04-16T01:02:49.482Z,111.90
2023-04-16T01:03:49.442Z,95.60
2023-04-16T01:04:49.392Z,104.90
2023-04-16T01:05:49.423Z,114.50
2023-04-16T01:06:49.391Z,102.80
2023-04-16T01:07:49.381Z,104.20
2023-04-16T01:08:49.386Z,116.20
2023-04-16T01:09:49.351Z,89.70
2023-04-16T01:10:49.369Z,98.50
2023-04-16T01:11:49.347Z,86.60
2023-04-16T01:12:49.373Z,98.20
2023-04-16T01:13:49.357Z,115.10
2023-04-16T01:14:49.346Z,113.20
2023-04-16T01:15:49.352Z,129.10
2023-04-16T01:16:49.338Z,126.80
2023-04-16T01:17:49.349Z,98.00
2023-04-16T01:18:49.351Z,93.00
2023-04-16T01:19:49.296Z,108.30
2023-04-16T01:20:49.339Z,103.30
2023-04-16T01:21:49.279Z,115.30
2023-04-16T01:22:49.326Z,112.50
2023-04-16T01:23:49.267Z,99.60
2023-04-16T01:24:49.292Z,110.50
2023-04-16T01:25:49.295Z,101.20
2023-04-16T01:26:49.297Z,92.60
2023-04-16T01:27:49.256Z,93.30
2023-04-16T01:28:49.315Z,99.70
2023-04-16T01:29:49.242Z,85.40
2023-04-16T01:30:49.269Z,81.40
2023-04-16T01:31:49.358Z,81.90
2023-04-16T01:32:49.299Z,98.80
2023-04-16T01:33:49.216Z,107.30
2023-04-16T01:34:49.255Z,100.20
2023-04-16T01:35:49.216Z,125.90
2023-04-16T01:36:49.220Z,99.60
2023-04-16T01:37:49.192Z,101.30
2023-04-16T01:38:49.216Z,119.70
2023-04-16T01:39:49.193Z,104.70
2023-04-16T01:40:49.233Z,107.30
2023-04-16T01:41:49.171Z,105.40
2023-04-16T01:42:49.186Z,89.00
2023-04-16T01:43:49.179Z,94.90
2023-04-16T01:44:49.176Z,96.80
2023-04-16T01:45:49.163Z,108.50
2023-04-16T01:46:49.216Z,111.70
2023-04-16T01:47:49.187Z,107.70
2023-04-16T01:48:49.161Z,121.00
2023-04-16T01:49:49.141Z,107.80
2023-04-16T01:50:49.138Z,96.70
2023-04-16T01:51:49.139Z,94.50
2023-04-16T01:52:49.132Z,96.60
2023-04-16T01:53:49.144Z,99.80
2023-04-16T01:54:49.123Z,87.80
2023-04-16T01:55:49.092Z,91.70
2023-04-16T01:56:49.099Z,89.80
2023-04-16T01:57:49.099Z,99.30
2023-04-16T01:58:49.098Z,107.40
2023-04-16T01:59:49.079Z,104.90
2023-04-16T02:00:49.148Z,112.20
2023-04-16T02:01:49.148Z,90.90
2023-04-16T02:02:49.264Z,104.60
2023-04-16T02:03:49.306Z,103.30
2023-04-16T02:04:49.053Z,105.20
2023-04-16T02:05:49.059Z,105.70
2023-04-16T02:06:49.058Z,114.60
2023-04-16T02:07:49.029Z,101.20
2023-04-16T02:08:49.057Z,92.00
2023-04-16T02:09:49.049Z,103.00
2023-04-16T02:10:49.025Z,94.20
2023-04-16T02:11:48.996Z,94.40
2023-04-16T02:12:49.008Z,96.00
2023-04-16T02:13:48.990Z,91.40
2023-04-16T02:14:49.013Z,113.20
2023-04-16T02:15:48.977Z,108.00
2023-04-16T02:16:49.106Z,122.90
2023-04-16T02:17:49.006Z,112.90
2023-04-16T02:18:48.968Z,138.70
2023-04-16T02:19:48.968Z,115.40
2023-04-16T02:20:48.956Z,100.90
2023-04-16T02:21:48.926Z,103.80
2023-04-16T02:22:48.960Z,104.90
2023-04-16T02:23:48.924Z,98.10
2023-04-16T02:24:48.986Z,88.10
2023-04-16T02:25:48.926Z,102.20
2023-04-16T02:26:48.947Z,96.20
2023-04-16T02:27:48.912Z,95.20
2023-04-16T02:28:48.920Z,91.50
2023-04-16T02:29:48.882Z,98.40
2023-04-16T02:30:48.941Z,99.70
2023-04-16T02:31:48.961Z,90.10
2023-04-16T02:32:48.915Z,96.30
2023-04-16T02:33:48.877Z,98.70
2023-04-16T02:34:48.885Z,89.90
2023-04-16T02:35:48.854Z,77.30
2023-04-16T02:36:48.904Z,81.50
2023-04-16T02:37:48.865Z,92.10
2023-04-16T02:38:48.864Z,89.20
2023-04-16T02:39:48.861Z,90.80
2023-04-16T02:40:48.850Z,80.40
2023-04-16T02:41:48.849Z,75.70
2023-04-16T02:42:48.847Z,85.00
2023-04-16T02:43:48.864Z,88.90
2023-04-16T02:44:48.856Z,86.10
2023-04-16T02:45:48.817Z,89.10
2023-04-16T02:46:48.853Z,83.60
2023-04-16T02:47:48.854Z,75.30
2023-04-16T02:48:48.817Z,73.40
2023-04-16T02:49:48.771Z,84.60
2023-04-16T02:50:48.791Z,84.70
2023-04-16T02:51:48.772Z,81.60
2023-04-16T02:52:48.789Z,88.70
2023-04-16T02:53:48.789Z,81.80
2023-04-16T02:54:48.761Z,81.70
2023-04-16T02:55:48.735Z,95.00
2023-04-16T02:56:48.764Z,80.00
2023-04-16T02:57:48.729Z,90.20
2023-04-16T02:58:48.773Z,95.10
2023-04-16T02:59:48.770Z,94.30
2023-04-16T03:00:48.756Z,82.00
2023-04-16T03:01:48.820Z,98.40
2023-04-16T03:02:48.958Z,93.90
2023-04-16T03:03:48.758Z,86.80
2023-04-16T03:04:48.720Z,76.00
2023-04-16T03:05:48.688Z,81.80
2023-04-16T03:06:48.723Z,87.10
2023-04-16T03:07:48.679Z,99.90
2023-04-16T03:08:48.706Z,92.70
2023-04-16T03:09:48.655Z,87.50
2023-04-16T03:10:48.708Z,91.30
2023-04-16T03:11:48.661Z,84.00
2023-04-16T03:12:48.665Z,84.60
2023-04-16T03:13:48.663Z,84.10
2023-04-16T03:14:48.671Z,93.50
2023-04-16T03:15:48.662Z,86.50
2023-04-16T03:16:48.637Z,83.90
2023-04-16T03:17:48.706Z,84.50
2023-04-16T03:18:48.653Z,97.30
2023-04-16T03:19:48.614Z,98.90
2023-04-16T03:20:48.643Z,99.10
2023-04-16T03:21:48.622Z,104.50
2023-04-16T03:22:48.627Z,111.80
2023-04-16T03:23:48.586Z,98.80
2023-04-16T03:24:48.600Z,113.20
2023-04-16T03:25:48.622Z,82.70
2023-04-16T03:26:48.605Z,78.00
2023-04-16T03:27:48.585Z,96.10
2023-04-16T03:28:48.591Z,94.90
2023-04-16T03:29:48.557Z,95.00
2023-04-16T03:30:48.595Z,94.30
2023-04-16T03:31:48.552Z,81.10
2023-04-16T03:32:48.597Z,80.90
2023-04-16T03:33:48.536Z,94.40
2023-04-16T03:34:48.558Z,101.40
2023-04-16T03:35:48.523Z,114.40
2023-04-16T03:36:48.570Z,86.60
2023-04-16T03:37:48.520Z,97.20
2023-04-16T03:38:48.523Z,99.20
2023-04-16T03:39:48.524Z,91.90
2023-04-16T03:40:48.519Z,106.20
2023-04-16T03:41:48.496Z,104.50
2023-04-16T03:42:48.497Z,115.30
2023-04-16T03:43:48.481Z,114.50
2023-04-16T03:44:48.494Z,140.10
2023-04-16T03:45:48.491Z,94.10
2023-04-16T03:46:48.511Z,98.10
2023-04-16T03:47:48.494Z,108.60
2023-04-16T03:48:48.476Z,111.50
2023-04-16T03:49:48.447Z,123.60
2023-04-16T03:50:48.478Z,145.40
2023-04-16T03:51:48.449Z,96.00
2023-04-16T03:52:48.455Z,117.20
2023-04-16T03:53:48.455Z,118.30
2023-04-16T03:54:48.456Z,102.90
2023-04-16T03:55:48.431Z,96.50
2023-04-16T03:56:48.468Z,105.40
2023-04-16T03:57:48.416Z,123.10
2023-04-16T03:58:48.462Z,122.60
2023-04-16T03:59:48.412Z,108.90
2023-04-16T04:00:48.437Z,98.70
2023-04-16T04:01:48.429Z,98.00
2023-04-16T04:02:48.606Z,105.90
2023-04-16T04:03:48.515Z,108.40
2023-04-16T04:04:48.528Z,81.60
2023-04-16T04:05:48.379Z,91.50
2023-04-16T04:06:48.392Z,87.10
2023-04-16T04:07:48.357Z,90.00
2023-04-16T04:08:48.368Z,92.30
2023-04-16T04:09:48.345Z,90.40
2023-04-16T04:10:48.393Z,98.60
2023-04-16T04:11:48.349Z,83.40
2023-04-16T04:12:48.347Z,63.80
2023-04-16T04:13:48.346Z,84.70
2023-04-16T04:14:48.335Z,74.90
2023-04-16T04:15:48.319Z,91.70
2023-04-16T04:16:48.497Z,67.70
2023-04-16T04:17:48.378Z,79.20
2023-04-16T04:18:48.311Z,56.60
2023-04-16T04:20:00.492Z,61.20
2023-04-16T04:20:49.305Z,60.70
2023-04-16T04:21:48.293Z,73.80
2023-04-16T04:22:48.293Z,61.40
2023-04-16T04:23:48.267Z,86.10
2023-04-16T04:24:48.272Z,96.80
2023-04-16T04:25:48.328Z,63.30
2023-04-16T04:26:48.261Z,55.60
2023-04-16T04:27:48.255Z,75.70
2023-04-16T04:28:48.246Z,74.60
2023-04-16T04:29:48.235Z,47.90
2023-04-16T04:30:48.250Z,55.20
2023-04-16T04:31:48.238Z,51.40
2023-04-16T04:32:48.342Z,50.50
2023-04-16T04:33:48.197Z,55.30
2023-04-16T04:34:48.230Z,51.90
2023-04-16T04:35:48.194Z,57.50
2023-04-16T04:36:48.209Z,64.10
2023-04-16T04:37:48.174Z,61.10
2023-04-16T04:38:48.188Z,76.60
2023-04-16T04:39:48.159Z,62.80
2023-04-16T04:40:48.196Z,50.50
2023-04-16T04:41:48.156Z,56.70
2023-04-16T04:42:48.181Z,81.70
2023-04-16T04:43:48.185Z,54.50
2023-04-16T04:44:48.176Z,91.90
2023-04-16T04:45:48.144Z,87.40
2023-04-16T04:46:48.141Z,94.10
2023-04-16T04:47:48.157Z,74.90
2023-04-16T04:48:48.130Z,91.70
2023-04-16T04:49:48.126Z,97.30
2023-04-16T04:50:48.132Z,114.90
2023-04-16T04:51:48.118Z,139.50
2023-04-16T04:52:48.120Z,69.10
2023-04-16T04:53:48.120Z,109.40
2023-04-16T04:54:48.120Z,92.80
2023-04-16T04:55:50.924Z,88.30
2023-04-16T04:56:48.089Z,66.30
2023-04-16T04:57:48.066Z,89.00
2023-04-16T04:58:48.074Z,78.50
2023-04-16T04:59:48.057Z,109.90
2023-04-16T05:00:48.108Z,67.70
2023-04-16T05:01:48.077Z,70.90
2023-04-16T05:02:48.218Z,78.00
2023-04-16T05:03:48.110Z,68.30
2023-04-16T05:04:48.092Z,52.80
2023-04-16T05:05:48.024Z,61.40
2023-04-16T05:06:48.054Z,46.30
2023-04-16T05:07:48.012Z,79.10
2023-04-16T05:08:48.021Z,64.30
2023-04-16T05:09:48.002Z,69.40
2023-04-16T05:10:48.035Z,55.90
2023-04-16T05:11:47.995Z,58.80
2023-04-16T05:12:49.042Z,59.40
2023-04-16T05:13:48.000Z,54.10
2023-04-16T05:14:48.008Z,49.80
2023-04-16T05:15:47.983Z,62.60
2023-04-16T05:16:48.011Z,82.00
2023-04-16T05:17:48.020Z,74.20
2023-04-16T05:18:47.983Z,55.60
2023-04-16T05:19:47.952Z,60.60
2023-04-16T05:20:47.971Z,62.80
2023-04-16T05:21:47.935Z,62.80
2023-04-16T05:22:47.969Z,47.50
2023-04-16T05:23:47.942Z,55.60
2023-04-16T05:24:47.944Z,67.00
2023-04-16T05:25:47.917Z,123.20
2023-04-16T05:26:47.953Z,54.30
2023-04-16T05:27:47.903Z,106.70
2023-04-16T05:28:47.929Z,79.80
2023-04-16T05:29:47.901Z,59.50
2023-04-16T05:30:47.950Z,56.60
2023-04-16T05:31:47.884Z,59.60
2023-04-16T05:32:47.944Z,59.30
2023-04-16T05:33:47.873Z,59.00
2023-04-16T05:34:47.882Z,58.00
2023-04-16T05:35:47.881Z,86.10
2023-04-16T05:36:47.875Z,88.50
2023-04-16T05:37:47.866Z,64.00
2023-04-16T05:38:47.861Z,65.80
2023-04-16T05:39:47.858Z,87.00
2023-04-16T05:40:47.848Z,74.60
2023-04-16T05:41:47.847Z,71.90
2023-04-16T05:42:47.846Z,81.00
2023-04-16T05:43:47.836Z,82.20
2023-04-16T05:44:47.836Z,75.10
2023-04-16T05:45:47.830Z,89.00
2023-04-16T05:46:47.817Z,106.30
2023-04-16T05:47:47.852Z,102.80
2023-04-16T05:48:47.830Z,98.70
2023-04-16T05:49:47.789Z,104.80
2023-04-16T05:50:47.804Z,89.00
2023-04-16T05:51:49.128Z,80.50
2023-04-16T05:52:47.810Z,105.60
2023-04-16T05:53:47.785Z,121.80
2023-04-16T05:54:47.794Z,109.00
2023-04-16T05:55:47.755Z,101.40
2023-04-16T05:56:47.767Z,113.00
2023-04-16T05:57:47.742Z,82.60
2023-04-16T05:58:47.757Z,114.70
2023-04-16T05:59:47.750Z,94.00
2023-04-16T06:00:47.746Z,93.80
2023-04-16T06:01:47.782Z,102.90
2023-04-16T06:02:47.836Z,103.40
2023-04-16T06:03:47.771Z,123.60
2023-04-16T06:04:47.735Z,91.60
2023-04-16T06:05:47.702Z,90.70
2023-04-16T06:06:47.724Z,113.60
2023-04-16T06:07:47.683Z,136.80
2023-04-16T06:08:47.703Z,147.70
2023-04-16T06:09:47.689Z,74.00
2023-04-16T06:10:47.702Z,98.80
2023-04-16T06:11:47.670Z,90.50
2023-04-16T06:12:47.677Z,115.10
2023-04-16T06:13:47.665Z,96.60
2023-04-16T06:14:47.661Z,117.50
2023-04-16T06:15:47.651Z,119.40
2023-04-16T06:16:47.659Z,178.20
2023-04-16T06:17:47.688Z,175.20
2023-04-16T06:18:47.643Z,165.90
2023-04-16T06:19:47.627Z,235.60
2023-04-16T06:20:47.633Z,170.70
2023-04-16T06:21:47.615Z,177.90
2023-04-16T06:22:47.622Z,125.60
2023-04-16T06:23:47.626Z,143.90
2023-04-16T06:24:47.607Z,149.90
2023-04-16T06:25:47.586Z,112.90
2023-04-16T06:26:47.589Z,123.00
2023-04-16T06:27:47.576Z,144.20
2023-04-16T06:28:47.578Z,168.20
2023-04-16T06:29:47.598Z,198.00
2023-04-16T06:30:47.568Z,178.30
2023-04-16T06:31:47.579Z,138.00
2023-04-16T06:32:47.577Z,280.70
2023-04-16T06:33:47.540Z,131.80
2023-04-16T06:34:47.580Z,175.80
2023-04-16T06:35:47.541Z,192.30
2023-04-16T06:36:47.545Z,160.50
2023-04-16T06:37:47.539Z,162.50
2023-04-16T06:38:47.527Z,166.10
2023-04-16T06:39:47.503Z,171.10
2023-04-16T06:40:47.520Z,136.30
2023-04-16T06:41:47.514Z,179.30
2023-04-16T06:42:47.526Z,218.00
2023-04-16T06:43:47.483Z,142.50
2023-04-16T06:44:47.486Z,136.20
2023-04-16T06:45:47.473Z,143.50
2023-04-16T06:46:47.521Z,108.40
2023-04-16T06:47:47.465Z,167.20
2023-04-16T06:48:47.471Z,220.10
2023-04-16T06:49:47.460Z,165.90
2023-04-16T06:50:47.486Z,169.50
2023-04-16T06:51:47.460Z,180.40
2023-04-16T06:52:47.480Z,157.30
2023-04-16T06:53:47.426Z,240.40
2023-04-16T06:54:47.467Z,111.10
2023-04-16T06:55:47.419Z,88.50
2023-04-16T06:56:47.426Z,124.60
2023-04-16T06:57:47.411Z,124.70
2023-04-16T06:58:47.433Z,165.90
2023-04-16T06:59:47.391Z,111.80
2023-04-16T07:00:47.492Z,93.20
2023-04-16T07:01:47.422Z,131.00
2023-04-16T07:02:47.526Z,95.90
2023-04-16T07:03:47.644Z,131.70
2023-04-16T07:04:47.378Z,89.20
2023-04-16T07:05:47.380Z,100.70
2023-04-16T07:06:47.374Z,127.00
2023-04-16T07:07:47.372Z,139.30
2023-04-16T07:08:47.357Z,82.00
2023-04-16T07:09:47.365Z,118.40
2023-04-16T07:10:47.355Z,97.80
2023-04-16T07:11:47.340Z,132.20
2023-04-16T07:12:47.354Z,106.20
2023-04-16T07:13:47.311Z,135.00
2023-04-16T07:14:47.356Z,145.20
2023-04-16T07:15:47.312Z,85.00
2023-04-16T07:16:47.342Z,84.40
2023-04-16T07:17:47.373Z,72.10
2023-04-16T07:18:47.312Z,83.30
2023-04-16T07:19:47.356Z,90.60
2023-04-16T07:20:47.292Z,100.60
2023-04-16T07:21:47.275Z,129.70
2023-04-16T07:22:47.274Z,124.00
2023-04-16T07:23:47.266Z,88.00
2023-04-16T07:24:47.287Z,86.60
2023-04-16T07:25:47.248Z,109.20
2023-04-16T07:26:47.270Z,94.10
2023-04-16T07:27:47.279Z,82.70
2023-04-16T07:28:47.269Z,89.60
2023-04-16T07:29:47.223Z,103.10
2023-04-16T07:30:47.252Z,135.80
2023-04-16T07:31:47.241Z,82.90
2023-04-16T07:32:47.305Z,94.90
2023-04-16T07:33:47.201Z,94.80
2023-04-16T07:34:47.230Z,91.40
2023-04-16T07:35:47.210Z,82.90
2023-04-16T07:36:47.205Z,92.70
2023-04-16T07:37:47.238Z,77.50
2023-04-16T07:38:47.227Z,83.70
2023-04-16T07:39:47.186Z,92.50
2023-04-16T07:40:47.194Z,91.30
2023-04-16T07:41:47.150Z,100.70
2023-04-16T07:42:47.204Z,98.60
2023-04-16T07:43:47.149Z,84.50
2023-04-16T07:44:47.186Z,98.30
2023-04-16T07:45:47.170Z,77.10
2023-04-16T07:46:47.826Z,108.60
2023-04-16T07:47:47.260Z,95.80
2023-04-16T07:48:47.137Z,76.00
2023-04-16T07:49:47.134Z,77.30
2023-04-16T07:50:47.162Z,89.10
2023-04-16T07:51:47.106Z,99.30
2023-04-16T07:52:47.116Z,92.10
2023-04-16T07:53:47.121Z,87.30
2023-04-16T07:54:47.111Z,73.50
2023-04-16T07:55:47.087Z,95.50
2023-04-16T07:56:47.103Z,88.30
2023-04-16T07:57:47.076Z,67.60
2023-04-16T07:58:47.103Z,63.90
2023-04-16T07:59:47.063Z,86.30
2023-04-16T08:00:47.492Z,81.00
2023-04-16T08:01:47.053Z,76.80
2023-04-16T08:02:47.158Z,71.90
2023-04-16T08:03:47.305Z,64.50
2023-04-16T08:04:47.402Z,62.40
2023-04-16T08:05:47.045Z,88.70
2023-04-16T08:06:47.044Z,80.40
2023-04-16T08:07:47.037Z,97.90
2023-04-16T08:08:47.027Z,62.80
2023-04-16T08:09:47.039Z,90.20
2023-04-16T08:10:47.044Z,81.10
2023-04-16T08:11:47.025Z,82.20
2023-04-16T08:12:47.015Z,106.30
2023-04-16T08:13:46.988Z,76.40
2023-04-16T08:14:47.028Z,90.10
2023-04-16T08:15:47.005Z,76.50
2023-04-16T08:16:46.981Z,84.50
2023-04-16T08:17:47.062Z,65.30
2023-04-16T08:18:47.002Z,68.70
2023-04-16T08:19:46.971Z,79.90
2023-04-16T08:20:46.978Z,86.10
2023-04-16T08:21:46.948Z,79.60
2023-04-16T08:22:46.969Z,73.30
2023-04-16T08:23:46.928Z,70.80
2023-04-16T08:24:46.961Z,57.60
2023-04-16T08:25:46.977Z,62.30
2023-04-16T08:26:46.941Z,59.90
2023-04-16T08:27:46.927Z,59.40
2023-04-16T08:28:46.908Z,62.00
2023-04-16T08:29:46.893Z,76.10
2023-04-16T08:30:46.904Z,92.70
2023-04-16T08:31:47.007Z,112.90
2023-04-16T08:32:49.413Z,81.40
2023-04-16T08:33:48.951Z,66.70
2023-04-16T08:34:46.912Z,82.40
2023-04-16T08:35:46.865Z,61.30
2023-04-16T08:36:46.883Z,64.10
2023-04-16T08:37:46.860Z,76.10
2023-04-16T08:38:46.858Z,75.00
2023-04-16T08:39:46.864Z,60.80
2023-04-16T08:40:46.848Z,90.10
2023-04-16T08:41:46.846Z,72.30
2023-04-16T08:42:46.857Z,61.80
2023-04-16T08:43:46.817Z,77.50
2023-04-16T08:44:48.838Z,64.80
2023-04-16T08:45:46.804Z,77.30
2023-04-16T08:46:46.838Z,65.90
2023-04-16T08:47:46.842Z,61.40
2023-04-16T08:48:46.815Z,84.50
2023-04-16T08:49:46.771Z,62.30
2023-04-16T08:50:46.782Z,73.40
2023-04-16T08:51:46.805Z,60.90
2023-04-16T08:52:46.784Z,66.10
2023-04-16T08:53:46.745Z,60.10
2023-04-16T08:54:46.763Z,63.70
2023-04-16T08:55:47.727Z,69.40
2023-04-16T08:56:46.772Z,71.90
2023-04-16T08:57:46.731Z,65.50
2023-04-16T08:58:46.762Z,72.00
2023-04-16T08:59:46.729Z,87.10
2023-04-16T09:00:46.761Z,84.00
2023-04-16T09:01:46.746Z,93.50
2023-04-16T09:02:46.955Z,63.30
2023-04-16T09:03:46.855Z,68.90
2023-04-16T09:04:46.749Z,133.60
2023-04-16T09:05:46.670Z,94.20
2023-04-16T09:06:46.720Z,84.00
2023-04-16T09:07:46.665Z,79.20
2023-04-16T09:08:46.678Z,88.40
2023-04-16T09:09:46.695Z,83.20
2023-04-16T09:10:46.660Z,75.30
2023-04-16T09:11:46.698Z,68.60
2023-04-16T09:12:46.662Z,72.30
2023-04-16T09:13:46.638Z,66.00
2023-04-16T09:14:46.768Z,66.10
2023-04-16T09:15:46.606Z,78.20
2023-04-16T09:16:46.652Z,70.10
2023-04-16T09:17:46.683Z,65.20
2023-04-16T09:18:46.633Z,77.50
2023-04-16T09:19:46.599Z,60.10
2023-04-16T09:20:46.599Z,61.10
2023-04-16T09:21:46.583Z,62.80
2023-04-16T09:22:46.605Z,69.60
2023-04-16T09:23:46.594Z,64.40
2023-04-16T09:24:46.571Z,65.70
2023-04-16T09:25:46.575Z,74.10
2023-04-16T09:26:46.566Z,67.10
2023-04-16T09:27:46.542Z,77.40
2023-04-16T09:28:46.542Z,86.20
2023-04-16T09:29:46.557Z,81.30
2023-04-16T09:30:46.558Z,75.40
2023-04-16T09:31:46.554Z,75.50
2023-04-16T09:32:46.578Z,75.10
2023-04-16T09:33:46.511Z,63.80
2023-04-16T09:34:46.529Z,74.20
2023-04-16T09:35:46.502Z,93.80
2023-04-16T09:36:46.512Z,92.90
2023-04-16T09:37:46.483Z,81.00
2023-04-16T09:38:46.487Z,62.40
2023-04-16T09:39:46.483Z,54.60
2023-04-16T09:40:46.478Z,57.80
2023-04-16T09:41:46.464Z,75.60
2023-04-16T09:42:46.482Z,67.70
2023-04-16T09:43:46.443Z,59.30
2023-04-16T09:44:46.501Z,65.90
2023-04-16T09:45:46.475Z,69.20
2023-04-16T09:46:46.481Z,80.70
2023-04-16T09:47:46.539Z,63.60
2023-04-16T09:48:46.453Z,63.30
2023-04-16T09:49:46.484Z,68.30
2023-04-16T09:50:46.417Z,58.40
2023-04-16T09:51:46.395Z,58.10
2023-04-16T09:52:46.410Z,68.70
2023-04-16T09:53:46.390Z,49.90
2023-04-16T09:54:46.391Z,57.20
2023-04-16T09:55:46.906Z,57.30
2023-04-16T09:56:46.407Z,74.80
2023-04-16T09:57:46.363Z,71.00
2023-04-16T09:58:46.381Z,78.90
2023-04-16T09:59:46.355Z,62.80
2023-04-16T10:00:46.396Z,62.20
2023-04-16T10:01:46.472Z,53.00
2023-04-16T10:02:48.062Z,67.20
2023-04-16T10:03:46.408Z,63.40
2023-04-16T10:04:46.403Z,53.00
2023-04-16T10:05:46.332Z,59.90
2023-04-16T10:06:46.348Z,52.00
2023-04-16T10:07:46.352Z,49.60
2023-04-16T10:08:48.475Z,52.50
2023-04-16T10:09:46.340Z,56.00
2023-04-16T10:10:46.341Z,57.80
2023-04-16T10:11:46.289Z,69.20
2023-04-16T10:12:46.310Z,47.10
2023-04-16T10:13:46.290Z,47.30
2023-04-16T10:14:48.276Z,60.60
2023-04-16T10:15:46.297Z,46.90
2023-04-16T10:16:46.329Z,57.10
2023-04-16T10:17:46.298Z,61.70
2023-04-16T10:18:46.274Z,76.30
2023-04-16T10:19:46.267Z,85.00
2023-04-16T10:20:46.255Z,55.40
2023-04-16T10:21:46.253Z,58.10
2023-04-16T10:22:46.259Z,51.10
2023-04-16T10:23:46.252Z,38.30
2023-04-16T10:24:46.240Z,53.70
2023-04-16T10:25:46.244Z,42.80
2023-04-16T10:26:46.251Z,58.10
2023-04-16T10:27:46.195Z,52.70
2023-04-16T10:28:46.227Z,44.90
2023-04-16T10:29:46.241Z,36.30
2023-04-16T10:30:46.272Z,54.80
2023-04-16T10:31:46.172Z,45.60
2023-04-16T10:32:46.267Z,50.40
2023-04-16T10:33:46.204Z,39.10
2023-04-16T10:34:46.208Z,38.80
2023-04-16T10:35:52.334Z,34.60
2023-04-16T10:36:47.179Z,31.90
2023-04-16T10:37:46.135Z,35.60
2023-04-16T10:38:46.154Z,37.80
2023-04-16T10:39:46.136Z,28.80
2023-04-16T10:40:46.187Z,32.10
2023-04-16T10:41:46.136Z,28.70
2023-04-16T10:42:46.117Z,30.80
2023-04-16T10:43:46.130Z,33.20
2023-04-16T10:44:46.115Z,32.80
2023-04-16T10:45:46.141Z,31.40
2023-04-16T10:46:46.127Z,30.10
2023-04-16T10:47:46.117Z,30.50
2023-04-16T10:48:50.316Z,28.30
2023-04-16T10:49:46.061Z,22.10
2023-04-16T10:50:46.091Z,30.40
2023-04-16T10:51:46.109Z,29.00
2023-04-16T10:52:46.075Z,31.90
2023-04-16T10:53:46.077Z,32.80
2023-04-16T10:54:46.041Z,31.80
2023-04-16T10:55:46.011Z,29.70
2023-04-16T10:56:46.044Z,31.60
2023-04-16T10:57:46.004Z,33.80
2023-04-16T10:58:46.008Z,37.50
2023-04-16T10:59:46.077Z,30.20
2023-04-16T11:00:46.003Z,33.90
2023-04-16T11:01:46.024Z,39.30
2023-04-16T11:02:46.085Z,31.30
2023-04-16T11:03:46.130Z,25.00
2023-04-16T11:04:46.069Z,28.80
2023-04-16T11:05:45.977Z,27.70
2023-04-16T11:06:45.956Z,32.10
2023-04-16T11:07:45.955Z,32.30
2023-04-16T11:08:53.759Z,28.70
2023-04-16T11:09:46.968Z,26.30
2023-04-16T11:10:45.932Z,35.30
2023-04-16T11:11:45.936Z,26.80
2023-04-16T11:12:45.917Z,31.70
2023-04-16T11:13:45.892Z,36.20
2023-04-16T11:14:45.914Z,28.70
2023-04-16T11:15:45.935Z,31.30
2023-04-16T11:16:45.928Z,30.00
2023-04-16T11:17:45.946Z,27.40
2023-04-16T11:18:51.530Z,28.40
2023-04-16T11:19:46.867Z,24.50
2023-04-16T11:20:45.915Z,23.60
2023-04-16T11:21:45.840Z,25.20
2023-04-16T11:22:45.854Z,31.50
2023-04-16T11:23:45.822Z,20.80
2023-04-16T11:24:45.827Z,25.40
2023-04-16T11:25:45.839Z,26.10
2023-04-16T11:26:45.829Z,26.60
2023-04-16T11:27:45.845Z,25.40
2023-04-16T11:28:45.851Z,24.50
2023-04-16T11:29:47.468Z,26.60
2023-04-16T11:30:45.830Z,22.80
2023-04-16T11:31:45.906Z,23.60
2023-04-16T11:32:45.859Z,25.50
2023-04-16T11:33:45.829Z,27.40
2023-04-16T11:34:45.768Z,28.20
2023-04-16T11:35:45.768Z,24.30
2023-04-16T11:36:45.769Z,21.70
2023-04-16T11:37:45.762Z,25.10
2023-04-16T11:38:45.752Z,24.80
2023-04-16T11:39:45.748Z,24.30
2023-04-16T11:40:45.745Z,24.30
2023-04-16T11:41:45.776Z,27.00
2023-04-16T11:42:45.779Z,26.50
2023-04-16T11:43:45.738Z,24.50
2023-04-16T11:44:45.698Z,24.10
2023-04-16T11:45:45.683Z,30.10
2023-04-16T11:46:45.768Z,34.80
2023-04-16T11:47:45.773Z,29.30
2023-04-16T11:48:45.725Z,28.20
2023-04-16T11:49:45.680Z,28.80
2023-04-16T11:50:45.704Z,35.70
2023-04-16T11:51:45.662Z,36.20
2023-04-16T11:52:45.667Z,32.40
2023-04-16T11:53:52.653Z,31.20
2023-04-16T11:54:45.642Z,29.00
2023-04-16T11:55:45.738Z,38.50
2023-04-16T11:56:45.645Z,33.70
2023-04-16T11:57:45.632Z,36.60
2023-04-16T11:58:45.624Z,33.40
2023-04-16T12:00:01.361Z,30.90
2023-04-16T12:00:46.604Z,38.50
2023-04-16T12:01:45.638Z,35.40
2023-04-16T12:02:45.899Z,34.90
2023-04-16T12:03:45.947Z,36.00
2023-04-16T12:04:45.670Z,30.80
2023-04-16T12:05:45.601Z,36.70
2023-04-16T12:06:45.579Z,43.30
2023-04-16T12:07:45.610Z,39.80
2023-04-16T12:08:45.570Z,39.20
2023-04-16T12:09:45.547Z,40.70
2023-04-16T12:10:45.555Z,42.70
2023-04-16T12:11:45.557Z,46.10
2023-04-16T12:12:45.548Z,35.80
2023-04-16T12:13:45.563Z,40.00
2023-04-16T12:14:45.535Z,33.40
2023-04-16T12:15:45.524Z,37.60
2023-04-16T12:16:45.591Z,40.20
2023-04-16T12:17:45.537Z,50.30
2023-04-16T12:18:45.507Z,38.60
2023-04-16T12:19:45.494Z,34.00
2023-04-16T12:20:45.510Z,38.60
2023-04-16T12:21:45.496Z,35.20
2023-04-16T12:22:45.490Z,34.70
2023-04-16T12:23:45.477Z,40.20
2023-04-16T12:24:45.475Z,35.70
2023-04-16T12:25:45.475Z,47.00
2023-04-16T12:26:45.479Z,49.60
2023-04-16T12:27:45.457Z,46.10
2023-04-16T12:28:45.469Z,43.30
2023-04-16T12:29:45.455Z,38.30
2023-04-16T12:30:45.481Z,47.10
2023-04-16T12:31:45.423Z,39.80
2023-04-16T12:32:45.508Z,46.40
2023-04-16T12:33:45.436Z,39.90
2023-04-16T12:34:49.124Z,43.10
2023-04-16T12:35:45.400Z,39.20
2023-04-16T12:36:45.418Z,38.80
2023-04-16T12:37:45.386Z,47.10
2023-04-16T12:38:45.391Z,41.70
2023-04-16T12:39:47.547Z,44.40
2023-04-16T12:40:45.418Z,46.60
2023-04-16T12:41:45.393Z,50.70
2023-04-16T12:42:45.390Z,50.20
2023-04-16T12:43:45.371Z,60.10
2023-04-16T12:44:45.399Z,42.40
2023-04-16T12:45:45.453Z,44.20
2023-04-16T12:46:45.431Z,44.50